createdAt,value
2023-01-03T00:00:22.588Z,86.9
2023-01-03T00:02:26.295Z,97.3
2023-01-03T00:04:29.934Z,97.3
2023-01-03T00:08:40.240Z,94.6
2023-01-03T00:10:43.871Z,87.8
2023-01-03T00:14:51.166Z,82.1
2023-01-03T00:16:54.879Z,85.9
2023-01-03T00:18:58.482Z,90.2
2023-01-03T00:21:02.137Z,91.7
2023-01-03T00:23:08.930Z,96.8
2023-01-03T00:25:12.598Z,86.8
2023-01-03T00:27:16.243Z,86.8
2023-01-03T00:29:19.899Z,92.9
2023-01-03T00:31:23.572Z,96.1
2023-01-03T00:33:27.219Z,94.1
2023-01-03T00:35:30.884Z,90.9
2023-01-03T00:37:37.669Z,98.9
2023-01-03T00:39:41.344Z,99.5
2023-01-03T00:41:45.014Z,91
2023-01-03T00:43:48.627Z,97.6
2023-01-03T00:45:52.292Z,81.3
2023-01-03T00:47:55.916Z,93.5
2023-01-03T00:49:59.578Z,90.3
2023-01-03T00:54:10.051Z,107.7
2023-01-03T00:56:13.661Z,92.9
2023-01-03T00:58:31.941Z,110.5
2023-01-03T01:00:35.602Z,110.9
2023-01-03T01:02:39.369Z,88.7
2023-01-03T01:04:45.966Z,112
2023-01-03T01:06:49.689Z,107.6
2023-01-03T01:08:53.313Z,111
2023-01-03T01:10:56.982Z,101.5
2023-01-03T01:13:00.674Z,104.7
2023-01-03T01:15:04.286Z,100.6
2023-01-03T01:17:08.013Z,86.7
2023-01-03T01:19:14.729Z,112
2023-01-03T01:21:18.367Z,101.1
2023-01-03T01:23:22.077Z,110
2023-01-03T01:27:29.401Z,119.9
2023-01-03T01:29:33.124Z,114.6
2023-01-03T01:33:43.420Z,121.4
2023-01-03T01:35:47.061Z,114.3
2023-01-03T01:37:50.673Z,105.3
2023-01-03T01:39:54.357Z,135.8
2023-01-03T01:41:58.022Z,111.1
2023-01-03T01:44:01.653Z,122
2023-01-03T01:46:05.323Z,109.8
2023-01-03T01:48:11.983Z,111.3
2023-01-03T01:50:15.663Z,114.3
2023-01-03T01:52:19.280Z,107.3
2023-01-03T01:53:22.628Z,101.5
2023-01-03T01:55:26.268Z,95.9
2023-01-03T01:57:29.882Z,108.3
2023-01-03T01:59:33.558Z,97.4
2023-01-03T02:01:40.354Z,94.6
2023-01-03T02:03:43.937Z,99.1
2023-01-03T02:07:51.320Z,103.5
2023-01-03T02:09:54.921Z,106.4
2023-01-03T02:14:02.245Z,96.7
2023-01-03T02:16:08.965Z,89.5
2023-01-03T02:18:12.533Z,94.6
2023-01-03T02:20:16.258Z,89
2023-01-03T02:28:30.880Z,81.9
2023-01-03T02:32:41.231Z,82.9
2023-01-03T02:42:59.584Z,77.2
2023-01-03T02:45:06.296Z,98.2
2023-01-03T02:47:10.074Z,92.9
2023-01-03T02:49:13.742Z,81
2023-01-03T02:50:17.161Z,93.8
2023-01-03T02:52:20.879Z,101.9
2023-01-03T02:54:24.508Z,89.5
2023-01-03T02:56:28.198Z,90.6
2023-01-03T02:58:35.036Z,106.2
2023-01-03T03:00:38.684Z,99.6
2023-01-03T03:02:42.561Z,100.2
2023-01-03T03:04:46.022Z,108.1
2023-01-03T03:06:49.645Z,101.4
2023-01-03T03:08:53.430Z,91.4
2023-01-03T03:10:57.139Z,101.8
2023-01-03T03:13:03.967Z,114.9
2023-01-03T03:23:22.401Z,107
2023-01-03T03:27:33.052Z,120.3
2023-01-03T03:29:36.723Z,118
2023-01-03T03:31:40.507Z,121.4
2023-01-03T03:33:44.147Z,115.9
2023-01-03T03:35:47.880Z,104.1
2023-01-03T03:37:51.538Z,125.3
2023-01-03T03:42:02.097Z,211.5
2023-01-03T03:46:09.712Z,324.7
2023-01-03T03:47:13.118Z,282.6
2023-01-03T03:51:20.364Z,275.3
2023-01-03T03:53:24.026Z,530.1
2023-01-03T03:55:30.828Z,454.5
2023-01-03T03:57:34.426Z,265
2023-01-03T04:05:49.068Z,291.3
2023-01-03T04:07:54.358Z,422.9
2023-01-03T04:10:01.000Z,492.7
2023-01-03T04:12:04.677Z,539
2023-01-03T04:16:12.114Z,261.7
2023-01-03T04:20:19.371Z,446.7
2023-01-03T04:22:22.981Z,302.8
2023-01-03T04:24:29.702Z,288.7
2023-01-03T04:30:40.679Z,319.4
2023-01-03T04:32:44.310Z,248.3
2023-01-03T04:34:47.945Z,290.2
2023-01-03T04:36:51.599Z,266.7
2023-01-03T04:38:58.288Z,303.1
2023-01-03T04:41:01.964Z,284.3
2023-01-03T04:43:05.622Z,314.1
2023-01-03T04:45:30.314Z,258.2
2023-01-03T04:47:33.903Z,231.4
2023-01-03T04:49:37.556Z,219.2
2023-01-03T04:51:44.330Z,223.3
2023-01-03T04:53:47.890Z,216.5
2023-01-03T04:55:51.565Z,207.7
2023-01-03T04:57:55.201Z,206.2
2023-01-03T04:59:58.822Z,224.1
2023-01-03T05:02:02.739Z,201.9
2023-01-03T05:04:06.306Z,205.9
2023-01-03T05:06:12.939Z,204.9
2023-01-03T05:08:16.625Z,213.6
2023-01-03T05:10:20.257Z,207
2023-01-03T05:12:23.945Z,218.6
2023-01-03T05:14:27.578Z,196.9
2023-01-03T05:16:31.278Z,190
2023-01-03T05:18:34.834Z,192.3
2023-01-03T05:20:41.534Z,184.3
2023-01-03T05:22:45.262Z,178.5
2023-01-03T05:24:48.906Z,172.9
2023-01-03T05:26:52.622Z,167.4
2023-01-03T05:28:56.153Z,174.1
2023-01-03T05:30:59.792Z,169.4
2023-01-03T05:33:03.453Z,177.4
2023-01-03T05:35:10.172Z,190.3
2023-01-03T05:37:13.824Z,195.8
2023-01-03T05:39:17.482Z,196.2
2023-01-03T05:40:20.790Z,200.6
2023-01-03T05:42:24.467Z,186.6
2023-01-03T05:44:28.113Z,169
2023-01-03T05:46:31.886Z,189.7
2023-01-03T05:48:38.464Z,202.4
2023-01-03T05:50:42.180Z,199.8
2023-01-03T05:52:45.812Z,189.5
2023-01-03T05:54:49.455Z,168.2
2023-01-03T05:56:53.088Z,178.1
2023-01-03T05:58:56.767Z,173.9
2023-01-03T06:01:00.413Z,182.7
2023-01-03T06:11:21.667Z,180
2023-01-03T06:13:25.324Z,185.6
2023-01-03T06:17:35.694Z,191.9
2023-01-03T06:27:53.908Z,167.8
2023-01-03T06:29:57.584Z,185.5
2023-01-03T06:32:09.095Z,162.1
2023-01-03T06:34:07.912Z,156.7
2023-01-03T06:36:11.571Z,160.7
2023-01-03T06:37:14.929Z,157.5
2023-01-03T06:39:18.586Z,151.4
2023-01-03T06:41:22.235Z,161.5
2023-01-03T06:43:25.876Z,169.5
2023-01-03T06:45:32.667Z,163.6
2023-01-03T06:47:36.223Z,157.3
2023-01-03T06:49:39.879Z,146.5
2023-01-03T06:51:43.545Z,145.7
2023-01-03T06:53:47.173Z,162.7
2023-01-03T06:55:56.710Z,153.4
2023-01-03T06:57:54.471Z,151.4
2023-01-03T07:00:01.207Z,172.3
2023-01-03T07:02:05.002Z,161.1
2023-01-03T07:06:12.170Z,154.4
2023-01-03T07:08:15.855Z,146.3
2023-01-03T07:10:19.583Z,152
2023-01-03T07:12:23.214Z,153.4
2023-01-03T07:14:29.931Z,135.1
2023-01-03T07:16:33.663Z,155.7
2023-01-03T07:18:37.253Z,156.5
2023-01-03T07:20:40.894Z,162.4
2023-01-03T07:22:44.519Z,150
2023-01-03T07:24:48.157Z,140.9
2023-01-03T07:26:51.933Z,155.1
2023-01-03T07:28:58.832Z,156.8
2023-01-03T07:31:02.490Z,143.8
2023-01-03T07:33:06.170Z,129.1
2023-01-03T07:36:13.213Z,130.8
2023-01-03T07:38:16.877Z,120.7
2023-01-03T07:40:20.599Z,134.2
2023-01-03T07:42:27.506Z,140.5
2023-01-03T07:44:31.075Z,134.3
2023-01-03T07:46:34.871Z,133.6
2023-01-03T07:48:38.425Z,154.5
2023-01-03T07:50:42.154Z,153.4
2023-01-03T07:52:45.907Z,175.6
2023-01-03T07:56:56.496Z,157.1
2023-01-03T07:59:00.147Z,180.7
2023-01-03T08:01:03.762Z,232.7
2023-01-03T08:03:10.917Z,294.1
2023-01-03T08:07:14.911Z,236.6
2023-01-03T08:11:25.283Z,275.5
2023-01-03T08:13:28.925Z,259.6
2023-01-03T08:15:32.606Z,290.7
2023-01-03T08:17:36.277Z,241.8
2023-01-03T08:21:43.711Z,195.5
2023-01-03T08:23:47.378Z,221.6
2023-01-03T08:25:54.065Z,265.5
2023-01-03T08:34:30.287Z,154.7
2023-01-03T08:36:33.169Z,147.3
2023-01-03T08:38:39.843Z,161.4
2023-01-03T08:40:43.538Z,161.4
2023-01-03T08:42:47.163Z,144.7
2023-01-03T08:44:50.793Z,144.6
2023-01-03T08:46:54.641Z,156.7
2023-01-03T08:48:58.103Z,139.9
2023-01-03T08:51:01.786Z,148.7
2023-01-03T08:53:08.506Z,138.9
2023-01-03T08:55:12.118Z,128.3
2023-01-03T09:01:23.210Z,143
2023-01-03T09:03:26.927Z,160.5
2023-01-03T09:07:37.063Z,157.6
2023-01-03T09:09:40.684Z,153.5
2023-01-03T09:11:44.367Z,150.7
2023-01-03T09:13:48.024Z,156.7
2023-01-03T09:15:51.667Z,179.5
2023-01-03T09:17:55.248Z,165.9
2023-01-03T09:19:59.003Z,164.8
2023-01-03T09:22:05.667Z,169.2
2023-01-03T09:26:12.948Z,127.9
2023-01-03T09:27:16.317Z,163.7
2023-01-03T09:31:23.682Z,145.7
2023-01-03T09:33:27.260Z,123.4
2023-01-03T09:35:33.931Z,141.1
2023-01-03T09:37:37.591Z,126.5
2023-01-03T09:39:41.195Z,178.4
2023-01-03T09:41:44.895Z,119.6
2023-01-03T09:43:48.500Z,147.5
2023-01-03T09:45:52.137Z,123.7
2023-01-03T09:47:55.777Z,143.8
2023-01-03T09:52:06.138Z,141.7
2023-01-03T09:56:13.461Z,100.3
2023-01-03T09:58:17.112Z,102.8
2023-01-03T10:00:20.783Z,99.3
2023-01-03T10:02:24.446Z,92.5
2023-01-03T10:04:32.614Z,101.3
2023-01-03T10:08:39.949Z,88.8
2023-01-03T10:10:43.544Z,110.8
2023-01-03T10:12:47.201Z,106.1
2023-01-03T10:14:50.884Z,90.2
2023-01-03T10:16:54.619Z,90.6
2023-01-03T10:19:01.183Z,97
2023-01-03T10:21:04.834Z,100.5
2023-01-03T10:23:08.480Z,107.8
2023-01-03T10:24:11.822Z,95.7
2023-01-03T10:26:15.490Z,112.5
2023-01-03T10:28:19.139Z,92.9
2023-01-03T10:30:22.830Z,108.8
2023-01-03T10:32:29.452Z,106.3
2023-01-03T10:34:33.103Z,119
2023-01-03T10:36:36.706Z,96.8
2023-01-03T10:38:46.429Z,94.1
2023-01-03T10:40:44.017Z,104.8
2023-01-03T10:42:47.675Z,97.2
2023-01-03T10:44:51.287Z,89.1
2023-01-03T10:46:57.965Z,118.3
2023-01-03T10:49:27.194Z,112.4
2023-01-03T10:51:05.228Z,96.1
2023-01-03T10:53:08.916Z,108.3
2023-01-03T10:55:12.495Z,85.7
2023-01-03T10:57:16.134Z,89.2
2023-01-03T11:01:26.620Z,92.4
2023-01-03T11:03:30.214Z,85.3
2023-01-03T11:05:33.754Z,88.7
2023-01-03T11:07:37.380Z,83.8
2023-01-03T11:11:44.622Z,88.1
2023-01-03T11:13:48.264Z,89.7
2023-01-03T11:17:58.568Z,77.7
2023-01-03T11:20:02.209Z,75.3
2023-01-03T11:21:05.561Z,79.1
2023-01-03T11:23:09.176Z,80.9
2023-01-03T11:25:12.818Z,73.4
2023-01-03T11:27:16.473Z,65.6
2023-01-03T11:29:23.152Z,65.8
2023-01-03T11:31:26.905Z,67
2023-01-03T11:33:30.377Z,66.4
2023-01-03T11:35:33.996Z,68.1
2023-01-03T11:37:37.641Z,70
2023-01-03T11:39:41.247Z,71.5
2023-01-03T11:41:44.907Z,70.7
2023-01-03T11:43:51.524Z,59.9
2023-01-03T11:45:55.277Z,57.9
2023-01-03T11:47:58.831Z,54.3
2023-01-03T11:50:02.460Z,69.3
2023-01-03T11:52:06.067Z,56.9
2023-01-03T11:54:09.683Z,55.9
2023-01-03T11:56:13.307Z,60.2
2023-01-03T11:58:20.002Z,58.1
2023-01-03T12:00:23.690Z,48.2
2023-01-03T12:02:27.368Z,42.7
2023-01-03T12:04:30.932Z,55.4
2023-01-03T12:06:34.492Z,46.6
2023-01-03T12:08:38.143Z,52.8
2023-01-03T12:12:48.448Z,44.5
2023-01-03T12:16:55.716Z,41.6
2023-01-03T12:21:23.669Z,51
2023-01-03T12:23:27.269Z,41.3
2023-01-03T12:25:34.155Z,47.3
2023-01-03T12:31:44.964Z,39.3
2023-01-03T12:33:48.466Z,28.5
2023-01-03T12:37:55.748Z,27.7
2023-01-03T12:40:02.494Z,33.3
2023-01-03T12:42:06.065Z,35.1
2023-01-03T12:46:13.593Z,36.5
2023-01-03T12:48:16.917Z,31.9
2023-01-03T12:52:24.164Z,32.6
2023-01-03T12:54:30.875Z,29.2
2023-01-03T12:56:34.482Z,27.6
2023-01-03T12:58:39.776Z,28.7
2023-01-03T13:02:45.589Z,29.4
2023-01-03T13:08:59.275Z,24.9
2023-01-03T13:13:06.507Z,26.2
2023-01-03T13:14:09.869Z,37.7
2023-01-03T13:16:13.495Z,23.6
2023-01-03T13:18:17.086Z,17.6
2023-01-03T13:20:20.653Z,18.7
2023-01-03T13:22:27.349Z,18.6
2023-01-03T13:24:30.975Z,19.8
2023-01-03T13:26:34.582Z,20.5
2023-01-03T13:28:38.229Z,15.1
2023-01-03T13:30:41.818Z,17.9
2023-01-03T13:32:45.452Z,15.6
2023-01-03T13:34:49.074Z,13.4
2023-01-03T13:38:59.958Z,16.4
2023-01-03T13:41:18.873Z,15.1
2023-01-03T13:43:07.210Z,12.8
2023-01-03T13:45:10.834Z,19.1
2023-01-03T13:49:18.031Z,13.7
2023-01-03T13:51:24.709Z,13.8
2023-01-03T13:53:28.331Z,15
2023-01-03T13:55:31.957Z,16.2
2023-01-03T13:57:35.579Z,13.4
2023-01-03T13:59:39.187Z,11.6
2023-01-03T14:01:42.925Z,10
2023-01-03T14:03:46.461Z,10.6
2023-01-03T14:05:53.135Z,10.9
2023-01-03T14:07:56.746Z,12.4
2023-01-03T14:10:00.348Z,17.5
2023-01-03T14:11:03.694Z,13.2
2023-01-03T14:13:07.280Z,14.2
2023-01-03T14:15:21.274Z,13.5
2023-01-03T14:21:25.923Z,10.4
2023-01-03T14:25:32.094Z,13.3
2023-01-03T14:35:53.205Z,8.5
2023-01-03T14:40:00.481Z,7.9
2023-01-03T14:42:04.093Z,10.6
2023-01-03T14:44:07.645Z,13.8
2023-01-03T14:46:11.384Z,8.9
2023-01-03T14:48:18.009Z,7.9
2023-01-03T14:50:21.593Z,6.2
2023-01-03T14:52:25.221Z,7.3
2023-01-03T14:54:28.827Z,7.8
2023-01-03T14:56:32.610Z,16.3
2023-01-03T14:58:36.078Z,17.7
2023-01-03T15:00:39.764Z,10.2
2023-01-03T15:02:46.398Z,9.1
2023-01-03T15:04:49.922Z,8
2023-01-03T15:07:00.357Z,12.5
2023-01-03T15:07:56.870Z,9.7
2023-01-03T15:10:00.494Z,5.5
2023-01-03T15:12:04.092Z,8.1
2023-01-03T15:14:07.777Z,11.1
2023-01-03T15:16:14.443Z,10
2023-01-03T15:18:20.680Z,7.3
2023-01-03T15:20:21.615Z,7.5
2023-01-03T15:22:25.221Z,10
2023-01-03T15:28:36.129Z,9.2
2023-01-03T15:32:46.425Z,8
2023-01-03T15:34:50.048Z,5.9
2023-01-03T15:36:53.659Z,15.2
2023-01-03T15:38:57.270Z,6.4
2023-01-03T15:41:00.915Z,11.7
2023-01-03T15:43:04.523Z,5.9
2023-01-03T15:45:11.181Z,13.9
2023-01-03T15:47:14.798Z,7.1
2023-01-03T15:49:18.390Z,8
2023-01-03T15:51:22.004Z,8.6
2023-01-03T15:53:25.639Z,8
2023-01-03T15:55:29.252Z,17.4
2023-01-03T15:57:32.868Z,14.5
2023-01-03T15:59:43.544Z,11.4
2023-01-03T16:01:44.891Z,12.7
2023-01-03T16:03:49.330Z,21.3
2023-01-03T16:06:07.839Z,22
2023-01-03T16:08:11.435Z,18.4
2023-01-03T16:10:15.050Z,10.3
2023-01-03T16:12:21.761Z,7.5
2023-01-03T16:14:25.355Z,11.6
2023-01-03T16:16:29.161Z,7.3
2023-01-03T16:18:32.623Z,6
2023-01-03T16:20:36.201Z,9.6
2023-01-03T16:22:47.087Z,6.6
2023-01-03T16:24:43.492Z,8
2023-01-03T16:26:50.137Z,5.5
2023-01-03T16:28:53.744Z,11.9
2023-01-03T16:30:57.379Z,12.2
2023-01-03T16:33:01.015Z,10.8
2023-01-03T16:35:04.656Z,9.4
2023-01-03T16:37:08.245Z,19.8
2023-01-03T16:39:11.892Z,15.5
2023-01-03T16:41:18.541Z,5.3
2023-01-03T16:43:22.179Z,22.8
2023-01-03T16:45:25.806Z,10.4
2023-01-03T16:47:29.396Z,5.7
2023-01-03T16:49:33.022Z,14.2
2023-01-03T16:51:38.703Z,9
2023-01-03T16:53:40.259Z,9.2
2023-01-03T16:55:46.944Z,7.5
2023-01-03T16:57:54.541Z,4.7
2023-01-03T16:59:54.195Z,6.3
2023-01-03T17:00:57.625Z,10.2
2023-01-03T17:03:01.544Z,10.4
2023-01-03T17:05:04.783Z,10.4
2023-01-03T17:07:08.350Z,11.4
2023-01-03T17:09:15.039Z,9
2023-01-03T17:11:18.698Z,9.6
2023-01-03T17:13:22.287Z,7.9
2023-01-03T17:15:25.907Z,15.9
2023-01-03T17:17:29.457Z,7
2023-01-03T17:20:04.338Z,9.2
2023-01-03T17:21:36.707Z,11
2023-01-03T17:23:43.457Z,7.1
2023-01-03T17:25:47.033Z,11.6
2023-01-03T17:27:50.664Z,13.3
2023-01-03T17:29:54.257Z,10.7
2023-01-03T17:31:57.882Z,6.7
2023-01-03T17:34:01.518Z,4.1
2023-01-03T17:36:05.144Z,8.9
2023-01-03T17:38:25.691Z,11.5
2023-01-03T17:40:15.410Z,11.1
2023-01-03T17:42:19.093Z,7.5
2023-01-03T17:48:29.900Z,7.6
2023-01-03T17:50:33.598Z,13.8
2023-01-03T17:56:47.471Z,10.7
2023-01-03T17:57:50.795Z,12
2023-01-03T17:59:54.444Z,6.6
2023-01-03T18:01:58.173Z,7.6
2023-01-03T18:04:01.800Z,15.1
2023-01-03T18:06:08.320Z,13.2
2023-01-03T18:08:11.955Z,8.6
2023-01-03T18:10:15.548Z,7.1
2023-01-03T18:12:19.201Z,7.1
2023-01-03T18:14:22.787Z,8.7
2023-01-03T18:18:30.011Z,4.9
2023-01-03T18:26:47.538Z,4.2
2023-01-03T18:28:51.135Z,15.7
2023-01-03T18:32:58.346Z,12.2
2023-01-03T18:35:05.106Z,10
2023-01-03T18:37:08.636Z,13.2
2023-01-03T18:43:19.492Z,14
2023-01-03T18:45:23.090Z,5.4
2023-01-03T18:47:26.709Z,4.8
2023-01-03T18:49:33.389Z,6.4
2023-01-03T18:51:37.009Z,8
2023-01-03T18:53:40.615Z,6.7
2023-01-03T18:56:47.611Z,3.9
2023-01-03T19:03:01.693Z,8.1
2023-01-03T19:05:05.136Z,15.4
2023-01-03T19:07:08.851Z,6.7
2023-01-03T19:11:16.075Z,14
2023-01-03T19:13:19.676Z,8
2023-01-03T19:15:23.287Z,5.5
2023-01-03T19:21:37.192Z,22.4
2023-01-03T19:23:40.833Z,3.3
2023-01-03T19:38:09.147Z,11.8
2023-01-03T19:40:12.752Z,10.9
2023-01-03T19:42:16.394Z,3.3
2023-01-03T19:44:19.985Z,10.6
2023-01-03T19:46:26.747Z,13.3
2023-01-03T19:48:30.285Z,13.9
2023-01-03T19:52:58.291Z,8.3
2023-01-03T19:55:01.940Z,5.5
2023-01-03T19:57:05.552Z,9.6
2023-01-03T20:01:15.986Z,2.5
2023-01-03T20:03:19.648Z,7.4
2023-01-03T20:05:23.049Z,3.7
2023-01-03T20:07:26.633Z,5.6
2023-01-03T20:09:30.218Z,8.6
2023-01-03T20:11:33.852Z,5.2
2023-01-03T20:13:40.544Z,6.1
2023-01-03T20:15:44.253Z,8.7
2023-01-03T20:17:47.744Z,6.1
2023-01-03T20:19:51.354Z,9.8
2023-01-03T20:21:54.988Z,6.9
2023-01-03T20:23:58.647Z,6.8
2023-01-03T20:26:02.246Z,3.7
2023-01-03T20:28:08.879Z,6.4
2023-01-03T20:30:12.485Z,8.9
2023-01-03T20:34:19.729Z,3.4
2023-01-03T20:38:27.185Z,2.2
2023-01-03T20:40:30.581Z,5.8
2023-01-03T20:42:37.284Z,2.6
2023-01-03T20:47:47.817Z,4.8
2023-01-03T20:49:51.420Z,5.1
2023-01-03T20:51:55.055Z,4
2023-01-03T20:53:58.666Z,3.9
2023-01-03T20:56:05.328Z,5.7
2023-01-03T20:58:23.533Z,9.3
2023-01-03T21:00:12.581Z,4.6
2023-01-03T21:04:19.769Z,5.5
2023-01-03T21:06:23.426Z,7.4
2023-01-03T21:10:33.722Z,10.8
2023-01-03T21:12:37.791Z,10.9
2023-01-03T21:14:40.939Z,12.8
2023-01-03T21:16:44.684Z,6
2023-01-03T21:18:48.185Z,4.5
2023-01-03T21:20:51.780Z,6.1
2023-01-03T21:22:55.394Z,5.7
2023-01-03T21:25:02.071Z,8.6
2023-01-03T21:29:09.285Z,10.2
2023-01-03T21:31:12.947Z,6
2023-01-03T21:33:16.504Z,6.1
2023-01-03T21:35:20.149Z,4.6
2023-01-03T21:39:30.408Z,6.5
2023-01-03T21:41:34.021Z,8
2023-01-03T21:43:37.611Z,14.3
2023-01-03T21:44:40.953Z,3
2023-01-03T21:46:44.580Z,13
2023-01-03T21:48:48.180Z,4.6
2023-01-03T21:50:51.816Z,6.6
2023-01-03T21:52:58.487Z,4.4
2023-01-03T21:55:03.656Z,11.1
2023-01-03T21:57:07.214Z,2.5
2023-01-03T21:59:10.812Z,5.9
2023-01-03T22:01:14.533Z,4.8
2023-01-03T22:03:18.093Z,8.6
2023-01-03T22:05:21.633Z,7.1
2023-01-03T22:07:28.327Z,5.6
2023-01-03T22:09:31.937Z,4.3
2023-01-03T22:11:35.551Z,7.5
2023-01-03T22:13:39.155Z,8.9
2023-01-03T22:15:42.789Z,4.4
2023-01-03T22:17:46.396Z,6.5
2023-01-03T22:19:49.997Z,7.8
2023-01-03T22:21:56.673Z,3.2
2023-01-03T22:24:00.288Z,9.3
2023-01-03T22:26:03.890Z,8.5
2023-01-03T22:28:07.507Z,2.8
2023-01-03T22:30:11.071Z,4.5
2023-01-03T22:36:24.962Z,4.7
2023-01-03T22:38:28.542Z,4.6
2023-01-03T22:40:32.159Z,6.4
2023-01-03T22:41:35.501Z,5.5
2023-01-03T22:45:42.803Z,2.3
2023-01-03T22:47:46.294Z,10.5
2023-01-03T22:49:52.969Z,2
2023-01-03T22:51:56.598Z,1.8
2023-01-03T22:54:00.248Z,5.3
2023-01-03T22:56:03.781Z,4.2
2023-01-03T22:58:07.396Z,9.9
2023-01-03T23:00:11.016Z,5.7
2023-01-03T23:02:14.818Z,7.3
2023-01-03T23:04:21.437Z,2.9
2023-01-03T23:06:24.878Z,3.3
2023-01-03T23:08:28.474Z,4
2023-01-03T23:10:32.055Z,3.4
2023-01-03T23:12:35.707Z,5.1
2023-01-03T23:14:39.279Z,6.2
2023-01-03T23:16:43.017Z,3.9
2023-01-03T23:18:49.579Z,6.2
2023-01-03T23:20:53.166Z,6.1
2023-01-03T23:22:59.907Z,4.2
2023-01-03T23:25:00.382Z,4.6
2023-01-03T23:27:03.982Z,4
2023-01-03T23:29:07.578Z,5.2
2023-01-03T23:31:11.250Z,8.4
2023-01-03T23:33:18.129Z,2.7
2023-01-03T23:35:21.429Z,3.3
2023-01-03T23:37:25.002Z,7.7
2023-01-03T23:39:48.997Z,4.1
2023-01-03T23:41:52.602Z,5.1
2023-01-03T23:43:56.194Z,7
2023-01-03T23:46:02.872Z,8.5
2023-01-03T23:48:06.413Z,6.6
2023-01-03T23:50:10.029Z,2.9
2023-01-03T23:52:13.675Z,8.8
2023-01-03T23:54:17.270Z,5.4
2023-01-03T23:56:20.869Z,3.6
2023-01-03T23:58:24.432Z,7.7
